sensor_id;sensor_type;location;lat;lon;timestamp;P1;durP1;ratioP1;P2;durP2;ratioP2
57241;SDS011;43095;53.302;5.786;2023-06-24T00:00:03;25.20;;;19.05;;
57241;SDS011;43095;53.302;5.786;2023-06-24T00:02:34;25.55;;;19.25;;
57241;SDS011;43095;53.302;5.786;2023-06-24T00:05:03;25.90;;;19.52;;
57241;SDS011;43095;53.302;5.786;2023-06-24T00:07:31;24.23;;;18.75;;
57241;SDS011;43095;53.302;5.786;2023-06-24T00:09:58;23.25;;;17.80;;
57241;SDS011;43095;53.302;5.786;2023-06-24T00:12:25;20.50;;;16.52;;
57241;SDS011;43095;53.302;5.786;2023-06-24T00:14:53;20.40;;;15.85;;
57241;SDS011;43095;53.302;5.786;2023-06-24T00:17:20;21.00;;;15.40;;
57241;SDS011;43095;53.302;5.786;2023-06-24T00:19:47;18.67;;;14.93;;
57241;SDS011;43095;53.302;5.786;2023-06-24T00:22:14;17.73;;;15.60;;
57241;SDS011;43095;53.302;5.786;2023-06-24T00:24:41;18.05;;;15.63;;
57241;SDS011;43095;53.302;5.786;2023-06-24T00:27:09;19.65;;;15.40;;
57241;SDS011;43095;53.302;5.786;2023-06-24T00:29:36;19.48;;;15.43;;
57241;SDS011;43095;53.302;5.786;2023-06-24T00:32:07;17.48;;;15.63;;
57241;SDS011;43095;53.302;5.786;2023-06-24T00:34:34;17.63;;;14.60;;
57241;SDS011;43095;53.302;5.786;2023-06-24T00:37:01;17.17;;;14.60;;
57241;SDS011;43095;53.302;5.786;2023-06-24T00:39:29;18.23;;;14.20;;
57241;SDS011;43095;53.302;5.786;2023-06-24T00:41:56;18.67;;;15.60;;
57241;SDS011;43095;53.302;5.786;2023-06-24T00:44:23;15.85;;;13.52;;
57241;SDS011;43095;53.302;5.786;2023-06-24T00:46:50;18.33;;;14.52;;
57241;SDS011;43095;53.302;5.786;2023-06-24T00:49:17;14.52;;;12.85;;
57241;SDS011;43095;53.302;5.786;2023-06-24T00:51:44;14.35;;;11.75;;
57241;SDS011;43095;53.302;5.786;2023-06-24T00:54:16;16.25;;;13.82;;
57241;SDS011;43095;53.302;5.786;2023-06-24T00:56:43;13.45;;;11.68;;
57241;SDS011;43095;53.302;5.786;2023-06-24T00:59:13;15.07;;;12.93;;
57241;SDS011;43095;53.302;5.786;2023-06-24T01:01:42;20.00;;;14.73;;
57241;SDS011;43095;53.302;5.786;2023-06-24T01:04:11;14.80;;;12.88;;
57241;SDS011;43095;53.302;5.786;2023-06-24T01:06:37;15.75;;;13.48;;
57241;SDS011;43095;53.302;5.786;2023-06-24T01:09:10;16.50;;;13.98;;
57241;SDS011;43095;53.302;5.786;2023-06-24T01:11:38;16.20;;;12.38;;
57241;SDS011;43095;53.302;5.786;2023-06-24T01:14:05;16.35;;;13.23;;
57241;SDS011;43095;53.302;5.786;2023-06-24T01:19:40;15.40;;;12.70;;
57241;SDS011;43095;53.302;5.786;2023-06-24T01:24:43;16.25;;;13.23;;
57241;SDS011;43095;53.302;5.786;2023-06-24T01:27:29;17.90;;;14.13;;
57241;SDS011;43095;53.302;5.786;2023-06-24T01:30:14;15.02;;;12.98;;
57241;SDS011;43095;53.302;5.786;2023-06-24T01:33:00;17.40;;;14.70;;
57241;SDS011;43095;53.302;5.786;2023-06-24T01:35:31;22.48;;;15.20;;
57241;SDS011;43095;53.302;5.786;2023-06-24T01:38:04;18.92;;;15.18;;
57241;SDS011;43095;53.302;5.786;2023-06-24T01:40:41;20.35;;;15.10;;
57241;SDS011;43095;53.302;5.786;2023-06-24T01:43:12;17.83;;;14.75;;
57241;SDS011;43095;53.302;5.786;2023-06-24T01:45:41;18.38;;;13.88;;
57241;SDS011;43095;53.302;5.786;2023-06-24T01:48:12;18.60;;;14.73;;
57241;SDS011;43095;53.302;5.786;2023-06-24T01:51:24;21.77;;;14.85;;
57241;SDS011;43095;53.302;5.786;2023-06-24T01:53:36;18.35;;;15.52;;
57241;SDS011;43095;53.302;5.786;2023-06-24T01:56:07;16.92;;;15.02;;
57241;SDS011;43095;53.302;5.786;2023-06-24T01:58:34;19.25;;;14.35;;
57241;SDS011;43095;53.302;5.786;2023-06-24T02:01:04;17.67;;;14.18;;
57241;SDS011;43095;53.302;5.786;2023-06-24T02:03:31;20.35;;;16.98;;
57241;SDS011;43095;53.302;5.786;2023-06-24T02:05:59;23.95;;;16.55;;
57241;SDS011;43095;53.302;5.786;2023-06-24T02:08:31;20.13;;;15.88;;
57241;SDS011;43095;53.302;5.786;2023-06-24T02:11:00;21.15;;;16.08;;
57241;SDS011;43095;53.302;5.786;2023-06-24T02:13:28;19.60;;;14.70;;
57241;SDS011;43095;53.302;5.786;2023-06-24T02:15:59;18.38;;;15.02;;
57241;SDS011;43095;53.302;5.786;2023-06-24T02:18:28;21.17;;;14.40;;
57241;SDS011;43095;53.302;5.786;2023-06-24T02:20:55;17.75;;;14.30;;
57241;SDS011;43095;53.302;5.786;2023-06-24T02:23:22;18.35;;;14.10;;
57241;SDS011;43095;53.302;5.786;2023-06-24T02:25:50;18.73;;;15.18;;
57241;SDS011;43095;53.302;5.786;2023-06-24T02:28:17;16.90;;;13.93;;
57241;SDS011;43095;53.302;5.786;2023-06-24T02:30:45;18.85;;;13.63;;
57241;SDS011;43095;53.302;5.786;2023-06-24T02:33:14;19.45;;;13.52;;
57241;SDS011;43095;53.302;5.786;2023-06-24T02:35:42;22.13;;;15.40;;
57241;SDS011;43095;53.302;5.786;2023-06-24T02:38:12;19.95;;;15.07;;
57241;SDS011;43095;53.302;5.786;2023-06-24T02:40:38;22.17;;;14.98;;
57241;SDS011;43095;53.302;5.786;2023-06-24T02:43:06;19.38;;;14.13;;
57241;SDS011;43095;53.302;5.786;2023-06-24T02:45:32;20.25;;;14.77;;
57241;SDS011;43095;53.302;5.786;2023-06-24T02:48:00;18.67;;;14.60;;
57241;SDS011;43095;53.302;5.786;2023-06-24T02:50:28;20.00;;;14.60;;
57241;SDS011;43095;53.302;5.786;2023-06-24T02:52:56;19.77;;;14.32;;
57241;SDS011;43095;53.302;5.786;2023-06-24T02:55:27;21.67;;;16.15;;
57241;SDS011;43095;53.302;5.786;2023-06-24T02:58:00;19.70;;;15.70;;
57241;SDS011;43095;53.302;5.786;2023-06-24T03:00:44;17.42;;;14.25;;
57241;SDS011;43095;53.302;5.786;2023-06-24T03:03:26;20.52;;;14.50;;
57241;SDS011;43095;53.302;5.786;2023-06-24T03:05:56;20.75;;;14.57;;
57241;SDS011;43095;53.302;5.786;2023-06-24T03:08:28;21.15;;;14.90;;
57241;SDS011;43095;53.302;5.786;2023-06-24T03:10:56;15.95;;;14.15;;
57241;SDS011;43095;53.302;5.786;2023-06-24T03:13:27;17.08;;;13.25;;
57241;SDS011;43095;53.302;5.786;2023-06-24T03:16:12;16.48;;;13.05;;
57241;SDS011;43095;53.302;5.786;2023-06-24T03:18:47;16.90;;;13.82;;
57241;SDS011;43095;53.302;5.786;2023-06-24T03:21:15;17.98;;;14.02;;
57241;SDS011;43095;53.302;5.786;2023-06-24T03:23:43;19.63;;;14.38;;
57241;SDS011;43095;53.302;5.786;2023-06-24T03:26:12;21.50;;;15.73;;
57241;SDS011;43095;53.302;5.786;2023-06-24T03:28:40;21.95;;;14.20;;
57241;SDS011;43095;53.302;5.786;2023-06-24T03:31:14;16.90;;;13.65;;
57241;SDS011;43095;53.302;5.786;2023-06-24T03:33:42;19.45;;;14.73;;
57241;SDS011;43095;53.302;5.786;2023-06-24T03:36:13;16.65;;;14.02;;
57241;SDS011;43095;53.302;5.786;2023-06-24T03:38:40;16.88;;;13.57;;
57241;SDS011;43095;53.302;5.786;2023-06-24T03:41:08;18.20;;;14.15;;
57241;SDS011;43095;53.302;5.786;2023-06-24T03:43:34;19.30;;;14.45;;
57241;SDS011;43095;53.302;5.786;2023-06-24T03:46:01;20.50;;;14.30;;
57241;SDS011;43095;53.302;5.786;2023-06-24T03:48:28;19.38;;;14.90;;
57241;SDS011;43095;53.302;5.786;2023-06-24T03:50:55;23.80;;;14.82;;
57241;SDS011;43095;53.302;5.786;2023-06-24T03:53:27;20.33;;;14.38;;
57241;SDS011;43095;53.302;5.786;2023-06-24T03:55:54;18.05;;;13.75;;
57241;SDS011;43095;53.302;5.786;2023-06-24T03:58:21;24.63;;;15.10;;
57241;SDS011;43095;53.302;5.786;2023-06-24T04:00:48;16.55;;;13.82;;
57241;SDS011;43095;53.302;5.786;2023-06-24T04:03:16;21.88;;;14.73;;
57241;SDS011;43095;53.302;5.786;2023-06-24T04:05:45;19.30;;;14.43;;
57241;SDS011;43095;53.302;5.786;2023-06-24T04:08:12;20.27;;;15.35;;
57241;SDS011;43095;53.302;5.786;2023-06-24T04:10:39;19.20;;;15.85;;
57241;SDS011;43095;53.302;5.786;2023-06-24T04:13:10;21.65;;;16.08;;
57241;SDS011;43095;53.302;5.786;2023-06-24T04:15:38;19.35;;;14.40;;
57241;SDS011;43095;53.302;5.786;2023-06-24T04:18:05;18.60;;;14.93;;
57241;SDS011;43095;53.302;5.786;2023-06-24T04:20:32;18.38;;;14.38;;
57241;SDS011;43095;53.302;5.786;2023-06-24T04:23:03;20.35;;;15.65;;
57241;SDS011;43095;53.302;5.786;2023-06-24T04:25:30;17.60;;;14.60;;
57241;SDS011;43095;53.302;5.786;2023-06-24T04:27:57;18.40;;;14.45;;
57241;SDS011;43095;53.302;5.786;2023-06-24T04:30:24;19.80;;;15.23;;
57241;SDS011;43095;53.302;5.786;2023-06-24T04:32:51;20.17;;;14.95;;
57241;SDS011;43095;53.302;5.786;2023-06-24T04:35:18;25.67;;;15.90;;
57241;SDS011;43095;53.302;5.786;2023-06-24T04:37:45;21.23;;;16.52;;
57241;SDS011;43095;53.302;5.786;2023-06-24T04:40:12;21.08;;;15.70;;
57241;SDS011;43095;53.302;5.786;2023-06-24T04:42:40;18.42;;;15.63;;
57241;SDS011;43095;53.302;5.786;2023-06-24T04:45:07;23.33;;;17.33;;
57241;SDS011;43095;53.302;5.786;2023-06-24T04:47:34;22.63;;;15.38;;
57241;SDS011;43095;53.302;5.786;2023-06-24T04:50:01;21.45;;;16.42;;
57241;SDS011;43095;53.302;5.786;2023-06-24T04:52:28;22.58;;;17.17;;
57241;SDS011;43095;53.302;5.786;2023-06-24T04:54:55;23.02;;;17.05;;
57241;SDS011;43095;53.302;5.786;2023-06-24T04:57:28;25.20;;;17.83;;
57241;SDS011;43095;53.302;5.786;2023-06-24T04:59:57;20.58;;;15.98;;
57241;SDS011;43095;53.302;5.786;2023-06-24T05:02:24;25.90;;;17.35;;
57241;SDS011;43095;53.302;5.786;2023-06-24T05:04:52;21.60;;;17.80;;
57241;SDS011;43095;53.302;5.786;2023-06-24T05:07:19;21.35;;;18.13;;
57241;SDS011;43095;53.302;5.786;2023-06-24T05:09:46;20.55;;;17.08;;
57241;SDS011;43095;53.302;5.786;2023-06-24T05:12:14;21.90;;;16.88;;
57241;SDS011;43095;53.302;5.786;2023-06-24T05:14:41;24.00;;;17.17;;
57241;SDS011;43095;53.302;5.786;2023-06-24T05:17:08;20.80;;;17.80;;
57241;SDS011;43095;53.302;5.786;2023-06-24T05:19:34;19.83;;;16.15;;
57241;SDS011;43095;53.302;5.786;2023-06-24T05:22:01;24.05;;;17.48;;
57241;SDS011;43095;53.302;5.786;2023-06-24T05:24:28;22.77;;;17.13;;
57241;SDS011;43095;53.302;5.786;2023-06-24T05:26:55;22.35;;;16.95;;
57241;SDS011;43095;53.302;5.786;2023-06-24T05:29:22;22.33;;;16.15;;
57241;SDS011;43095;53.302;5.786;2023-06-24T05:31:49;22.95;;;17.92;;
57241;SDS011;43095;53.302;5.786;2023-06-24T05:34:16;23.48;;;16.55;;
57241;SDS011;43095;53.302;5.786;2023-06-24T05:36:42;22.80;;;16.35;;
57241;SDS011;43095;53.302;5.786;2023-06-24T05:39:09;22.67;;;16.17;;
57241;SDS011;43095;53.302;5.786;2023-06-24T05:41:37;19.48;;;15.45;;
57241;SDS011;43095;53.302;5.786;2023-06-24T05:44:07;19.15;;;15.65;;
57241;SDS011;43095;53.302;5.786;2023-06-24T05:46:35;20.65;;;16.33;;
57241;SDS011;43095;53.302;5.786;2023-06-24T05:49:02;17.90;;;15.52;;
57241;SDS011;43095;53.302;5.786;2023-06-24T05:51:29;19.50;;;16.13;;
57241;SDS011;43095;53.302;5.786;2023-06-24T05:53:56;18.70;;;14.65;;
57241;SDS011;43095;53.302;5.786;2023-06-24T05:56:24;14.95;;;13.40;;
57241;SDS011;43095;53.302;5.786;2023-06-24T05:58:51;17.42;;;14.25;;
57241;SDS011;43095;53.302;5.786;2023-06-24T06:01:18;16.98;;;14.30;;
57241;SDS011;43095;53.302;5.786;2023-06-24T06:03:45;21.48;;;14.10;;
57241;SDS011;43095;53.302;5.786;2023-06-24T06:06:11;16.25;;;14.48;;
57241;SDS011;43095;53.302;5.786;2023-06-24T06:08:38;19.30;;;14.07;;
57241;SDS011;43095;53.302;5.786;2023-06-24T06:11:05;18.70;;;14.75;;
57241;SDS011;43095;53.302;5.786;2023-06-24T06:13:32;19.30;;;14.27;;
57241;SDS011;43095;53.302;5.786;2023-06-24T06:15:59;16.80;;;13.75;;
57241;SDS011;43095;53.302;5.786;2023-06-24T06:18:26;18.70;;;13.25;;
57241;SDS011;43095;53.302;5.786;2023-06-24T06:20:53;19.75;;;13.57;;
57241;SDS011;43095;53.302;5.786;2023-06-24T06:23:20;17.45;;;13.82;;
57241;SDS011;43095;53.302;5.786;2023-06-24T06:25:46;18.35;;;13.65;;
57241;SDS011;43095;53.302;5.786;2023-06-24T06:28:14;17.25;;;14.07;;
57241;SDS011;43095;53.302;5.786;2023-06-24T06:30:41;16.65;;;12.95;;
57241;SDS011;43095;53.302;5.786;2023-06-24T06:33:08;16.35;;;12.82;;
57241;SDS011;43095;53.302;5.786;2023-06-24T06:35:35;16.98;;;12.32;;
57241;SDS011;43095;53.302;5.786;2023-06-24T06:38:02;16.70;;;12.77;;
57241;SDS011;43095;53.302;5.786;2023-06-24T06:40:29;15.80;;;11.57;;
57241;SDS011;43095;53.302;5.786;2023-06-24T06:42:56;15.82;;;12.43;;
57241;SDS011;43095;53.302;5.786;2023-06-24T06:45:23;18.38;;;12.77;;
57241;SDS011;43095;53.302;5.786;2023-06-24T06:47:49;14.82;;;11.60;;
57241;SDS011;43095;53.302;5.786;2023-06-24T06:50:17;14.95;;;12.23;;
57241;SDS011;43095;53.302;5.786;2023-06-24T06:52:44;16.60;;;12.68;;
57241;SDS011;43095;53.302;5.786;2023-06-24T06:55:10;17.33;;;12.90;;
57241;SDS011;43095;53.302;5.786;2023-06-24T06:57:37;15.40;;;11.48;;
57241;SDS011;43095;53.302;5.786;2023-06-24T07:00:04;16.08;;;12.48;;
57241;SDS011;43095;53.302;5.786;2023-06-24T07:02:32;14.25;;;11.80;;
57241;SDS011;43095;53.302;5.786;2023-06-24T07:04:59;17.33;;;12.10;;
57241;SDS011;43095;53.302;5.786;2023-06-24T07:07:27;14.65;;;11.30;;
57241;SDS011;43095;53.302;5.786;2023-06-24T07:09:54;13.93;;;10.55;;
57241;SDS011;43095;53.302;5.786;2023-06-24T07:12:21;15.35;;;11.07;;
57241;SDS011;43095;53.302;5.786;2023-06-24T07:14:50;14.20;;;10.77;;
57241;SDS011;43095;53.302;5.786;2023-06-24T07:17:17;14.43;;;10.07;;
57241;SDS011;43095;53.302;5.786;2023-06-24T07:19:44;14.80;;;9.95;;
57241;SDS011;43095;53.302;5.786;2023-06-24T07:22:11;14.07;;;10.20;;
57241;SDS011;43095;53.302;5.786;2023-06-24T07:24:38;12.00;;;9.07;;
57241;SDS011;43095;53.302;5.786;2023-06-24T07:27:04;11.25;;;8.45;;
57241;SDS011;43095;53.302;5.786;2023-06-24T07:29:32;11.40;;;9.00;;
57241;SDS011;43095;53.302;5.786;2023-06-24T07:31:58;13.95;;;10.13;;
57241;SDS011;43095;53.302;5.786;2023-06-24T07:34:25;14.00;;;8.70;;
57241;SDS011;43095;53.302;5.786;2023-06-24T07:36:52;10.23;;;7.80;;
57241;SDS011;43095;53.302;5.786;2023-06-24T07:39:19;11.20;;;8.52;;
57241;SDS011;43095;53.302;5.786;2023-06-24T07:41:45;10.75;;;7.47;;
57241;SDS011;43095;53.302;5.786;2023-06-24T07:44:12;11.95;;;8.05;;
57241;SDS011;43095;53.302;5.786;2023-06-24T07:46:39;11.93;;;8.30;;
57241;SDS011;43095;53.302;5.786;2023-06-24T07:49:06;11.90;;;8.40;;
57241;SDS011;43095;53.302;5.786;2023-06-24T07:51:33;13.02;;;8.90;;
57241;SDS011;43095;53.302;5.786;2023-06-24T07:54:01;14.32;;;8.30;;
57241;SDS011;43095;53.302;5.786;2023-06-24T07:56:28;10.82;;;8.10;;
57241;SDS011;43095;53.302;5.786;2023-06-24T07:58:55;11.05;;;8.30;;
57241;SDS011;43095;53.302;5.786;2023-06-24T08:01:22;10.52;;;8.10;;
57241;SDS011;43095;53.302;5.786;2023-06-24T08:03:48;11.73;;;8.38;;
57241;SDS011;43095;53.302;5.786;2023-06-24T08:06:15;11.52;;;7.85;;
57241;SDS011;43095;53.302;5.786;2023-06-24T08:08:42;13.82;;;8.57;;
57241;SDS011;43095;53.302;5.786;2023-06-24T08:11:09;12.25;;;8.88;;
57241;SDS011;43095;53.302;5.786;2023-06-24T08:13:36;12.00;;;8.98;;
57241;SDS011;43095;53.302;5.786;2023-06-24T08:16:03;11.95;;;6.97;;
57241;SDS011;43095;53.302;5.786;2023-06-24T08:18:30;11.75;;;8.57;;
57241;SDS011;43095;53.302;5.786;2023-06-24T08:20:56;13.68;;;8.45;;
57241;SDS011;43095;53.302;5.786;2023-06-24T08:23:23;13.23;;;8.23;;
57241;SDS011;43095;53.302;5.786;2023-06-24T08:25:50;11.82;;;8.48;;
57241;SDS011;43095;53.302;5.786;2023-06-24T08:28:26;13.80;;;8.82;;
57241;SDS011;43095;53.302;5.786;2023-06-24T08:30:53;11.52;;;8.05;;
57241;SDS011;43095;53.302;5.786;2023-06-24T08:33:20;10.82;;;7.43;;
57241;SDS011;43095;53.302;5.786;2023-06-24T08:35:47;13.25;;;9.32;;
57241;SDS011;43095;53.302;5.786;2023-06-24T08:38:14;11.02;;;8.30;;
57241;SDS011;43095;53.302;5.786;2023-06-24T08:40:40;9.63;;;7.95;;
57241;SDS011;43095;53.302;5.786;2023-06-24T08:43:09;12.02;;;7.97;;
57241;SDS011;43095;53.302;5.786;2023-06-24T08:45:36;10.63;;;7.03;;
57241;SDS011;43095;53.302;5.786;2023-06-24T08:48:05;9.07;;;7.63;;
57241;SDS011;43095;53.302;5.786;2023-06-24T08:50:34;12.95;;;8.50;;
57241;SDS011;43095;53.302;5.786;2023-06-24T08:53:03;13.85;;;8.50;;
57241;SDS011;43095;53.302;5.786;2023-06-24T08:55:36;10.55;;;7.97;;
57241;SDS011;43095;53.302;5.786;2023-06-24T08:58:07;13.40;;;8.02;;
57241;SDS011;43095;53.302;5.786;2023-06-24T09:00:34;11.45;;;8.32;;
57241;SDS011;43095;53.302;5.786;2023-06-24T09:03:01;11.35;;;7.70;;
57241;SDS011;43095;53.302;5.786;2023-06-24T09:05:29;13.02;;;8.23;;
57241;SDS011;43095;53.302;5.786;2023-06-24T09:07:55;14.85;;;8.10;;
57241;SDS011;43095;53.302;5.786;2023-06-24T09:10:56;12.27;;;8.02;;
57241;SDS011;43095;53.302;5.786;2023-06-24T09:13:19;14.35;;;7.55;;
57241;SDS011;43095;53.302;5.786;2023-06-24T09:15:46;12.40;;;8.35;;
57241;SDS011;43095;53.302;5.786;2023-06-24T09:18:13;11.80;;;7.40;;
57241;SDS011;43095;53.302;5.786;2023-06-24T09:20:44;11.60;;;7.47;;
57241;SDS011;43095;53.302;5.786;2023-06-24T09:23:12;11.18;;;7.88;;
57241;SDS011;43095;53.302;5.786;2023-06-24T09:25:38;11.00;;;8.32;;
57241;SDS011;43095;53.302;5.786;2023-06-24T09:28:05;11.15;;;7.57;;
57241;SDS011;43095;53.302;5.786;2023-06-24T09:30:32;12.07;;;7.70;;
57241;SDS011;43095;53.302;5.786;2023-06-24T09:32:59;12.45;;;7.47;;
57241;SDS011;43095;53.302;5.786;2023-06-24T09:35:26;14.43;;;8.43;;
57241;SDS011;43095;53.302;5.786;2023-06-24T09:37:53;11.60;;;8.20;;
57241;SDS011;43095;53.302;5.786;2023-06-24T09:40:25;12.73;;;7.93;;
57241;SDS011;43095;53.302;5.786;2023-06-24T09:42:53;12.90;;;7.65;;
57241;SDS011;43095;53.302;5.786;2023-06-24T09:45:30;13.40;;;7.55;;
57241;SDS011;43095;53.302;5.786;2023-06-24T09:47:57;13.15;;;8.07;;
57241;SDS011;43095;53.302;5.786;2023-06-24T09:50:24;12.35;;;8.15;;
57241;SDS011;43095;53.302;5.786;2023-06-24T09:52:51;9.15;;;6.47;;
57241;SDS011;43095;53.302;5.786;2023-06-24T09:55:19;12.73;;;8.38;;
57241;SDS011;43095;53.302;5.786;2023-06-24T09:57:46;11.07;;;7.90;;
57241;SDS011;43095;53.302;5.786;2023-06-24T10:00:15;10.18;;;7.43;;
57241;SDS011;43095;53.302;5.786;2023-06-24T10:02:45;14.40;;;6.88;;
57241;SDS011;43095;53.302;5.786;2023-06-24T10:05:13;9.73;;;6.85;;
57241;SDS011;43095;53.302;5.786;2023-06-24T10:07:40;12.77;;;7.88;;
57241;SDS011;43095;53.302;5.786;2023-06-24T10:10:08;10.48;;;7.35;;
57241;SDS011;43095;53.302;5.786;2023-06-24T10:12:38;13.90;;;6.65;;
57241;SDS011;43095;53.302;5.786;2023-06-24T10:15:05;9.75;;;6.70;;
57241;SDS011;43095;53.302;5.786;2023-06-24T10:17:32;12.05;;;7.25;;
57241;SDS011;43095;53.302;5.786;2023-06-24T10:20:03;9.98;;;7.88;;
57241;SDS011;43095;53.302;5.786;2023-06-24T10:22:30;11.98;;;6.40;;
57241;SDS011;43095;53.302;5.786;2023-06-24T10:25:04;12.05;;;6.70;;
57241;SDS011;43095;53.302;5.786;2023-06-24T10:27:38;8.38;;;5.43;;
57241;SDS011;43095;53.302;5.786;2023-06-24T10:30:06;9.05;;;5.85;;
57241;SDS011;43095;53.302;5.786;2023-06-24T10:32:41;8.60;;;5.43;;
57241;SDS011;43095;53.302;5.786;2023-06-24T10:35:21;9.05;;;6.13;;
57241;SDS011;43095;53.302;5.786;2023-06-24T10:37:54;9.50;;;5.97;;
57241;SDS011;43095;53.302;5.786;2023-06-24T10:43:02;9.00;;;5.28;;
57241;SDS011;43095;53.302;5.786;2023-06-24T10:45:30;12.50;;;6.88;;
57241;SDS011;43095;53.302;5.786;2023-06-24T10:47:57;9.38;;;7.10;;
57241;SDS011;43095;53.302;5.786;2023-06-24T10:50:26;10.52;;;6.15;;
57241;SDS011;43095;53.302;5.786;2023-06-24T10:52:55;9.18;;;6.47;;
57241;SDS011;43095;53.302;5.786;2023-06-24T10:55:23;8.23;;;6.40;;
57241;SDS011;43095;53.302;5.786;2023-06-24T10:57:52;10.38;;;7.65;;
57241;SDS011;43095;53.302;5.786;2023-06-24T11:00:20;10.23;;;6.75;;
57241;SDS011;43095;53.302;5.786;2023-06-24T11:02:47;14.15;;;7.82;;
57241;SDS011;43095;53.302;5.786;2023-06-24T11:05:14;13.80;;;7.90;;
57241;SDS011;43095;53.302;5.786;2023-06-24T11:07:41;14.02;;;8.88;;
57241;SDS011;43095;53.302;5.786;2023-06-24T11:10:12;14.15;;;8.57;;
57241;SDS011;43095;53.302;5.786;2023-06-24T11:12:41;14.40;;;8.85;;
57241;SDS011;43095;53.302;5.786;2023-06-24T11:15:09;12.32;;;6.93;;
57241;SDS011;43095;53.302;5.786;2023-06-24T11:17:37;9.18;;;6.85;;
57241;SDS011;43095;53.302;5.786;2023-06-24T11:20:08;7.80;;;6.18;;
57241;SDS011;43095;53.302;5.786;2023-06-24T11:22:40;9.15;;;5.47;;
57241;SDS011;43095;53.302;5.786;2023-06-24T11:25:15;10.95;;;5.72;;
57241;SDS011;43095;53.302;5.786;2023-06-24T11:27:43;6.78;;;5.68;;
57241;SDS011;43095;53.302;5.786;2023-06-24T11:30:10;11.85;;;5.95;;
57241;SDS011;43095;53.302;5.786;2023-06-24T11:32:38;8.60;;;5.30;;
57241;SDS011;43095;53.302;5.786;2023-06-24T11:35:10;10.70;;;5.53;;
57241;SDS011;43095;53.302;5.786;2023-06-24T11:40:12;8.68;;;5.03;;
57241;SDS011;43095;53.302;5.786;2023-06-24T11:42:43;9.02;;;5.78;;
57241;SDS011;43095;53.302;5.786;2023-06-24T11:45:12;5.97;;;4.63;;
57241;SDS011;43095;53.302;5.786;2023-06-24T11:47:42;9.13;;;5.43;;
57241;SDS011;43095;53.302;5.786;2023-06-24T11:50:09;10.00;;;5.97;;
57241;SDS011;43095;53.302;5.786;2023-06-24T11:52:49;11.13;;;7.97;;
57241;SDS011;43095;53.302;5.786;2023-06-24T11:58:01;15.20;;;8.30;;
57241;SDS011;43095;53.302;5.786;2023-06-24T12:03:01;13.88;;;8.20;;
57241;SDS011;43095;53.302;5.786;2023-06-24T12:05:31;11.55;;;6.82;;
57241;SDS011;43095;53.302;5.786;2023-06-24T12:08:01;8.77;;;6.15;;
57241;SDS011;43095;53.302;5.786;2023-06-24T12:10:30;9.30;;;5.32;;
57241;SDS011;43095;53.302;5.786;2023-06-24T12:13:00;10.60;;;6.10;;
57241;SDS011;43095;53.302;5.786;2023-06-24T12:15:28;7.13;;;5.35;;
57241;SDS011;43095;53.302;5.786;2023-06-24T12:17:55;10.43;;;5.38;;
57241;SDS011;43095;53.302;5.786;2023-06-24T12:20:23;8.88;;;5.97;;
57241;SDS011;43095;53.302;5.786;2023-06-24T12:22:55;11.10;;;6.15;;
57241;SDS011;43095;53.302;5.786;2023-06-24T12:25:24;9.93;;;6.40;;
57241;SDS011;43095;53.302;5.786;2023-06-24T12:27:54;8.45;;;5.45;;
57241;SDS011;43095;53.302;5.786;2023-06-24T12:30:20;8.52;;;5.28;;
57241;SDS011;43095;53.302;5.786;2023-06-24T12:32:49;8.18;;;6.15;;
57241;SDS011;43095;53.302;5.786;2023-06-24T12:35:17;8.15;;;5.38;;
57241;SDS011;43095;53.302;5.786;2023-06-24T12:37:44;7.78;;;4.72;;
57241;SDS011;43095;53.302;5.786;2023-06-24T12:40:12;7.07;;;5.25;;
57241;SDS011;43095;53.302;5.786;2023-06-24T12:42:39;9.20;;;5.10;;
57241;SDS011;43095;53.302;5.786;2023-06-24T12:45:06;7.78;;;5.65;;
57241;SDS011;43095;53.302;5.786;2023-06-24T12:47:34;7.75;;;4.90;;
57241;SDS011;43095;53.302;5.786;2023-06-24T12:50:01;9.52;;;6.43;;
57241;SDS011;43095;53.302;5.786;2023-06-24T12:52:37;6.75;;;5.47;;
57241;SDS011;43095;53.302;5.786;2023-06-24T12:55:06;10.85;;;6.20;;
57241;SDS011;43095;53.302;5.786;2023-06-24T12:57:35;8.60;;;6.30;;
57241;SDS011;43095;53.302;5.786;2023-06-24T13:00:03;8.50;;;5.90;;
57241;SDS011;43095;53.302;5.786;2023-06-24T13:02:32;8.90;;;6.68;;
57241;SDS011;43095;53.302;5.786;2023-06-24T13:05:00;10.65;;;7.03;;
57241;SDS011;43095;53.302;5.786;2023-06-24T13:07:27;11.48;;;5.95;;
57241;SDS011;43095;53.302;5.786;2023-06-24T13:09:54;11.32;;;6.93;;
57241;SDS011;43095;53.302;5.786;2023-06-24T13:12:21;9.63;;;6.20;;
57241;SDS011;43095;53.302;5.786;2023-06-24T13:14:49;8.32;;;7.43;;
57241;SDS011;43095;53.302;5.786;2023-06-24T13:17:16;10.02;;;7.15;;
57241;SDS011;43095;53.302;5.786;2023-06-24T13:19:43;10.27;;;6.03;;
57241;SDS011;43095;53.302;5.786;2023-06-24T13:22:10;9.65;;;6.60;;
57241;SDS011;43095;53.302;5.786;2023-06-24T13:24:37;11.13;;;6.47;;
57241;SDS011;43095;53.302;5.786;2023-06-24T13:27:04;8.35;;;5.35;;
57241;SDS011;43095;53.302;5.786;2023-06-24T13:29:33;9.85;;;5.15;;
57241;SDS011;43095;53.302;5.786;2023-06-24T13:32:01;6.85;;;4.47;;
57241;SDS011;43095;53.302;5.786;2023-06-24T13:34:28;9.88;;;4.50;;
57241;SDS011;43095;53.302;5.786;2023-06-24T13:36:55;6.15;;;4.50;;
57241;SDS011;43095;53.302;5.786;2023-06-24T13:39:22;6.68;;;4.32;;
57241;SDS011;43095;53.302;5.786;2023-06-24T13:41:50;4.18;;;3.45;;
57241;SDS011;43095;53.302;5.786;2023-06-24T13:44:19;6.18;;;3.67;;
57241;SDS011;43095;53.302;5.786;2023-06-24T13:46:46;5.05;;;3.00;;
57241;SDS011;43095;53.302;5.786;2023-06-24T13:49:16;5.60;;;3.47;;
57241;SDS011;43095;53.302;5.786;2023-06-24T13:51:43;3.85;;;3.30;;
57241;SDS011;43095;53.302;5.786;2023-06-24T13:54:11;4.85;;;3.15;;
57241;SDS011;43095;53.302;5.786;2023-06-24T13:56:40;5.90;;;3.10;;
57241;SDS011;43095;53.302;5.786;2023-06-24T13:59:09;3.85;;;3.30;;
57241;SDS011;43095;53.302;5.786;2023-06-24T14:01:37;4.40;;;3.22;;
57241;SDS011;43095;53.302;5.786;2023-06-24T14:04:05;4.43;;;3.15;;
57241;SDS011;43095;53.302;5.786;2023-06-24T14:06:40;4.65;;;3.25;;
57241;SDS011;43095;53.302;5.786;2023-06-24T14:09:07;5.45;;;3.28;;
57241;SDS011;43095;53.302;5.786;2023-06-24T14:11:34;5.25;;;3.30;;
57241;SDS011;43095;53.302;5.786;2023-06-24T14:14:01;7.15;;;3.15;;
57241;SDS011;43095;53.302;5.786;2023-06-24T14:16:37;3.80;;;3.22;;
57241;SDS011;43095;53.302;5.786;2023-06-24T14:19:07;3.17;;;2.53;;
57241;SDS011;43095;53.302;5.786;2023-06-24T14:21:34;5.75;;;3.17;;
57241;SDS011;43095;53.302;5.786;2023-06-24T14:24:06;3.83;;;3.13;;
57241;SDS011;43095;53.302;5.786;2023-06-24T14:26:42;6.55;;;3.10;;
57241;SDS011;43095;53.302;5.786;2023-06-24T14:29:09;6.38;;;2.95;;
57241;SDS011;43095;53.302;5.786;2023-06-24T14:31:36;4.45;;;2.83;;
57241;SDS011;43095;53.302;5.786;2023-06-24T14:34:03;5.20;;;3.17;;
57241;SDS011;43095;53.302;5.786;2023-06-24T14:36:29;4.30;;;3.22;;
57241;SDS011;43095;53.302;5.786;2023-06-24T14:38:56;6.97;;;3.40;;
57241;SDS011;43095;53.302;5.786;2023-06-24T14:41:24;4.40;;;3.17;;
57241;SDS011;43095;53.302;5.786;2023-06-24T14:43:51;6.70;;;2.95;;
57241;SDS011;43095;53.302;5.786;2023-06-24T14:46:18;4.78;;;2.80;;
57241;SDS011;43095;53.302;5.786;2023-06-24T14:48:45;4.63;;;2.83;;
57241;SDS011;43095;53.302;5.786;2023-06-24T14:51:12;4.05;;;2.58;;
57241;SDS011;43095;53.302;5.786;2023-06-24T14:53:38;5.00;;;3.03;;